Latest Weather Observations for Lockhart River

IDQ60801

Issued at 11:52 pm EST Wednesday 25 May 2022 (issued every 10 minutes, with the page automatically refreshed every 10 minutes)

About weather observations | Map of weather stations | Latest weather observations for QLD | Other Formats
Station Details ID: 028008 Name: LOCKHART RIVER AIRPORT Lat: -12.79 Lon: 143.30 Height: 18.5 m
Data from the previous 72 hours. | See also: Recent months at Lockhart River
Date/Time
EST
Temp
°C
App
Temp
°C
Dew
Point
°C
Rel
Hum
%
Delta-T
°C
Wind Press
QNH
hPa
Press
MSL
hPa
Rain since
9am
mm
Dir  Spd
km/h
Gust
km/h
Spd
kts
Gust
kts
25/11:30pm 22.9 28.1 22.9 100 0.0 CALM 0 0 0 0 1012.0 1011.9 0.0
25/11:00pm 22.8 28.0 22.8 100 0.0 CALM 0 0 0 0 1012.2 1012.1 0.0
25/10:30pm 22.8 28.0 22.8 100 0.0 CALM 0 0 0 0 1012.4 1012.3 0.0
25/10:00pm 23.1 28.4 23.1 100 0.0 CALM 0 0 0 0 1012.5 1012.4 0.0
25/09:30pm 23.3 28.7 23.3 100 0.0 CALM 0 0 0 0 1012.5 1012.4 0.0
25/09:00pm 23.3 28.7 23.3 100 0.0 CALM 0 0 0 0 1012.6 1012.5 0.0
25/08:30pm 23.7 29.1 23.2 97 0.3 CALM 0 0 0 0 1012.3 1012.2 0.0
25/08:00pm 24.8 30.3 23.4 92 1.0 CALM 0 0 0 0 1012.1 1012.0 0.0
25/07:30pm 25.1 29.0 23.0 88 1.4 SSE 7 11 4 6 1011.6 1011.5 0.0
25/07:00pm 25.7 29.3 23.0 85 1.8 SE 9 15 5 8 1011.4 1011.3 0.0
25/06:30pm 26.0 28.9 23.1 84 2.0 SE 13 19 7 10 1011.1 1011.0 0.0
25/06:00pm 26.7 28.9 23.2 81 2.4 SE 17 24 9 13 1011.0 1010.9 0.0
25/05:30pm 26.9 28.8 22.7 78 2.8 ESE 17 24 9 13 1010.9 1010.8 0.0
25/05:00pm 27.4 29.0 22.8 76 3.1 SE 19 28 10 15 1010.6 1010.5 0.0
25/04:30pm 27.7 30.1 22.9 75 3.3 ESE 15 22 8 12 1010.6 1010.5 0.0
25/04:00pm 27.6 30.0 23.0 76 3.1 ESE 15 20 8 11 1010.7 1010.6 0.0
25/03:30pm 27.7 29.4 23.1 76 3.1 ESE 19 26 10 14 1010.7 1010.6 0.0
25/03:00pm 28.1 30.1 23.0 74 3.5 ESE 17 28 9 15 1010.9 1010.8 0.0
25/02:30pm 28.0 29.5 22.7 73 3.6 E 19 28 10 15 1010.9 1010.8 0.0
25/02:00pm 28.7 30.6 23.4 73 3.6 E 19 28 10 15 1011.2 1011.1 0.0
25/01:30pm 29.0 31.7 24.1 75 3.4 ESE 17 26 9 14 1011.4 1011.3 0.0
25/01:00pm 29.1 30.7 23.3 71 4.0 ESE 20 32 11 17 1011.9 1011.8 0.0
25/12:30pm 28.8 30.6 23.5 73 3.6 ESE 20 28 11 15 1012.4 1012.3 0.0
25/12:00pm 28.4 29.8 22.9 72 3.7 E 20 32 11 17 1012.9 1012.8 0.0
25/11:30am 28.3 29.8 23.0 73 3.6 E 20 32 11 17 1013.3 1013.2 0.0
25/11:00am 28.4 30.0 23.3 74 3.5 ESE 20 28 11 15 1013.5 1013.4 0.0
25/10:30am 28.4 29.9 23.1 73 3.6 ESE 20 26 11 14 1013.7 1013.6 0.0
25/10:00am 28.0 29.7 23.4 76 3.2 SE 20 30 11 16 1014.0 1013.9 0.0
25/09:30am 28.0 30.7 24.2 80 2.6 SE 17 28 9 15 1014.1 1014.0 0.0
25/09:00am 26.6 31.5 24.6 89 1.4 SSE 7 9 4 5 1014.1 1014.0 1.6
25/08:30am 25.7 30.9 24.8 95 0.6 S 6 9 3 5 1013.8 1013.7 1.6
25/08:00am 24.4 30.5 24.4 100 0.0 CALM 0 0 0 0 1013.6 1013.5 1.6
25/07:30am 23.0 28.3 23.0 100 0.0 CALM 0 0 0 0 1013.3 1013.2 1.6
25/07:13am 22.5 27.5 22.5 100 0.0 CALM 0 0 0 0 1013.1 1013.0 1.6
25/07:00am 22.3 27.2 22.3 100 0.0 CALM 0 0 0 0 1013.0 1012.9 1.6
25/06:30am 22.4 27.3 22.4 100 0.0 CALM 0 0 0 0 1012.8 1012.7 1.6
25/06:00am 22.5 27.1 22.5 100 0.0 SSE 2 7 1 4 1012.6 1012.5 1.6
25/05:30am 22.7 27.8 22.7 100 0.0 CALM 0 0 0 0 1012.4 1012.3 1.6
25/05:25am 22.8 28.0 22.8 100 0.0 CALM 0 0 0 0 1012.4 1012.3 1.6
25/05:00am 22.5 27.5 22.5 100 0.0 CALM 0 0 0 0 1012.4 1012.3 1.6
25/04:30am 22.6 27.7 22.6 100 0.0 CALM 0 0 0 0 1012.4 1012.3 1.6
25/04:22am 22.4 27.3 22.4 100 0.0 CALM 0 0 0 0 1012.4 1012.3 1.6
25/04:02am 22.5 27.5 22.5 100 0.0 CALM 0 0 0 0 1012.3 1012.2 1.6
25/04:00am 22.4 27.3 22.4 100 0.0 CALM 0 0 0 0 1012.3 1012.2 1.6
25/03:43am 22.6 27.7 22.6 100 0.0 CALM 0 0 0 0 1012.5 1012.4 1.6
25/03:30am 22.5 27.5 22.5 100 0.0 CALM 0 0 0 0 1012.5 1012.4 1.6
25/03:00am 22.6 27.7 22.6 100 0.0 CALM 0 0 0 0 1012.6 1012.5 1.6
25/02:46am 22.9 28.1 22.9 100 0.0 CALM 0 0 0 0 1012.7 1012.6 1.4
25/02:34am 23.1 28.4 23.1 100 0.0 CALM 0 0 0 0 1012.8 1012.7 1.4
25/02:30am 23.2 28.6 23.2 100 0.0 CALM 0 0 0 0 1012.8 1012.7 1.4
25/02:10am 23.1 28.4 23.1 100 0.0 CALM 0 0 0 0 1012.9 1012.8 1.4
25/02:00am 23.4 28.9 23.4 100 0.0 CALM 0 0 0 0 1013.0 1012.9 1.4
25/01:37am 23.2 28.6 23.2 100 0.0 CALM 0 0 0 0 1013.1 1013.0 1.4
25/01:30am 23.2 28.6 23.2 100 0.0 CALM 0 0 0 0 1013.2 1013.1 1.4
25/01:00am 23.9 29.7 23.9 100 0.0 CALM 0 0 0 0 1013.3 1013.2 1.4
25/12:36am 23.9 29.7 23.9 100 0.0 CALM 0 0 0 0 1013.5 1013.4 1.4
25/12:30am 23.8 29.5 23.8 100 0.0 CALM 0 0 0 0 1013.5 1013.4 1.4
25/12:17am 23.9 29.7 23.9 100 0.0 CALM 0 0 0 0 1013.5 1013.4 1.4
25/12:12am 24.2 30.2 24.2 100 0.0 CALM 0 0 0 0 1013.5 1013.4 1.4
25/12:00am 24.3 30.3 24.3 100 0.0 CALM 0 0 0 0 1013.6 1013.5 1.4
 
Date/Time
EST
Temp
°C
App
Temp
°C
Dew
Point
°C
Rel
Hum
%
Delta-T
°C
Wind Press
QNH
hPa
Press
MSL
hPa
Rain since
9am
mm
Dir  Spd
km/h
Gust
km/h
Spd
kts
Gust
kts
24/11:30pm 24.4 30.5 24.4 100 0.0 CALM 0 0 0 0 1013.9 1013.8 1.4
24/11:00pm 24.6 30.8 24.6 100 0.0 CALM 0 0 0 0 1014.1 1014.0 1.4
24/10:48pm 24.5 30.6 24.5 100 0.0 CALM 0 0 0 0 1014.1 1014.0 1.4
24/10:31pm 24.6 30.8 24.6 100 0.0 CALM 0 0 0 0 1014.0 1013.9 1.4
24/10:30pm 24.6 30.8 24.6 100 0.0 CALM 0 0 0 0 1014.0 1013.9 1.4
24/10:00pm 24.8 30.0 24.8 100 0.0 SSE 6 7 3 4 1014.0 1013.9 1.4
24/09:30pm 24.9 31.3 24.9 100 0.0 CALM 0 0 0 0 1014.0 1013.9 1.0
24/09:19pm 24.8 30.8 24.8 100 0.0 SE 2 6 1 3 1014.1 1014.0 1.0
24/09:00pm 24.8 30.8 24.8 100 0.0 SSE 2 6 1 3 1014.1 1014.0 0.4
24/08:30pm 24.9 30.0 24.7 99 0.1 S 6 7 3 4 1013.8 1013.7 0.2
24/08:10pm 25.2 30.3 24.9 98 0.2 SSE 7 9 4 5 1013.5 1013.4 0.2
24/08:00pm 25.1 29.7 24.8 98 0.2 SSE 9 11 5 6 1013.5 1013.4 0.2
24/07:48pm 25.2 29.5 24.9 98 0.2 S 11 13 6 7 1013.3 1013.2 0.2
24/07:30pm 25.5 30.0 24.6 95 0.6 S 9 11 5 6 1013.0 1012.9 0.2
24/07:00pm 25.8 29.7 24.2 91 1.1 SSE 11 15 6 8 1012.6 1012.5 0.0
24/06:51pm 26.1 29.7 24.3 90 1.2 SSE 13 17 7 9 1012.5 1012.4 0.0
24/06:34pm 26.3 29.9 24.3 89 1.4 SE 13 20 7 11 1012.2 1012.1 0.0
24/06:30pm 26.4 29.3 24.4 89 1.4 SE 17 20 9 11 1012.2 1012.1 0.0
24/06:29pm 26.4 29.3 24.4 89 1.4 SE 17 20 9 11 1012.2 1012.1 0.0
24/06:06pm 26.7 29.1 24.2 86 1.7 SSE 19 28 10 15 1011.9 1011.8 0.0
24/06:00pm 27.0 29.3 24.1 84 2.0 SE 19 28 10 15 1011.8 1011.7 0.0
24/05:30pm 27.4 30.8 24.1 82 2.3 SSE 13 20 7 11 1011.4 1011.3 0.0
24/05:00pm 27.9 29.5 23.3 76 3.1 SE 20 28 11 15 1011.3 1011.2 0.0
24/04:30pm 28.3 30.5 24.3 79 2.8 SE 20 30 11 16 1011.3 1011.2 0.0
24/04:00pm 28.8 30.0 23.9 75 3.4 SE 24 33 13 18 1011.1 1011.0 0.0
24/03:30pm 29.1 31.0 24.4 76 3.3 ESE 22 32 12 17 1011.0 1010.9 0.0
24/03:00pm 29.2 30.1 23.4 71 4.0 ESE 24 32 13 17 1010.9 1010.8 0.0
24/02:30pm 28.6 30.5 23.7 75 3.4 ESE 20 32 11 17 1011.0 1010.9 0.0
24/02:00pm 29.3 31.3 24.0 73 3.7 ESE 20 30 11 16 1011.1 1011.0 0.0
24/01:30pm 28.0 30.4 24.2 80 2.6 ESE 19 26 10 14 1011.6 1011.5 0.0
24/01:00pm 28.2 29.9 24.6 81 2.5 ESE 24 32 13 17 1011.8 1011.7 0.0
24/12:30pm 29.3 31.7 24.6 76 3.3 ESE 20 28 11 15 1011.9 1011.8 0.0
24/12:00pm 28.5 30.9 24.3 78 2.9 ESE 19 26 10 14 1012.5 1012.4 0.0
24/11:30am 28.9 30.3 24.2 76 3.3 ESE 24 35 13 19 1012.6 1012.5 0.0
24/11:00am 28.7 30.4 24.7 79 2.8 ESE 24 33 13 18 1013.0 1012.9 0.0
24/10:30am 28.5 30.5 24.5 79 2.8 SE 22 33 12 18 1013.1 1013.0 0.0
24/10:00am 28.4 30.7 25.0 82 2.4 SE 22 30 12 16 1013.2 1013.1 0.0
24/09:30am 27.7 29.4 24.1 81 2.5 SE 22 30 12 16 1013.2 1013.1 0.0
24/09:00am 27.5 30.1 24.9 86 1.8 SE 20 28 11 15 1013.0 1012.9 6.6
24/08:30am 26.4 30.5 25.2 93 0.8 SE 13 17 7 9 1012.9 1012.8 6.6
24/08:28am 26.4 30.9 25.2 93 0.8 SE 11 17 6 9 1012.9 1012.8 6.6
24/08:11am 26.2 30.3 25.2 94 0.7 SSE 13 15 7 8 1012.7 1012.6 6.6
24/08:06am 26.0 30.0 25.0 94 0.7 SSE 13 17 7 9 1012.7 1012.6 6.6
24/08:00am 26.1 30.5 25.1 94 0.7 SSE 11 17 6 9 1012.7 1012.6 6.6
24/07:52am 25.8 29.8 25.1 96 0.5 SSE 13 17 7 9 1012.7 1012.6 6.6
24/07:30am 25.5 30.0 25.2 98 0.2 SE 11 15 6 8 1012.6 1012.5 6.6
24/07:00am 24.8 29.0 24.8 100 0.0 SE 11 15 6 8 1012.6 1012.5 6.6
24/06:30am 24.3 29.0 24.3 100 0.0 SE 7 11 4 6 1012.4 1012.3 6.4
24/06:25am 24.2 28.8 24.2 100 0.0 SSE 7 11 4 6 1012.4 1012.3 6.4
24/06:00am 24.3 29.2 24.3 100 0.0 S 6 7 3 4 1012.1 1012.0 6.4
24/05:35am 24.7 29.6 24.7 100 0.0 ESE 7 9 4 5 1011.8 1011.7 6.0
24/05:30am 24.7 29.3 24.7 100 0.0 E 9 13 5 7 1011.7 1011.6 6.0
24/05:13am 24.6 28.3 24.6 100 0.0 ESE 13 19 7 10 1011.6 1011.5 6.0
24/05:00am 24.6 28.7 24.6 100 0.0 ESE 11 17 6 9 1011.5 1011.4 5.6
24/04:41am 24.0 29.1 24.0 100 0.0 ENE 4 9 2 5 1011.5 1011.4 5.4
24/04:30am 23.9 29.3 23.9 100 0.0 SW 2 7 1 4 1011.4 1011.3 5.0
24/04:22am 23.7 29.4 23.7 100 0.0 CALM 0 0 0 0 1011.4 1011.3 4.8
24/04:07am 23.7 29.4 23.7 100 0.0 CALM 0 0 0 0 1011.3 1011.2 4.0
24/04:00am 23.6 29.2 23.6 100 0.0 CALM 0 6 0 3 1011.3 1011.2 4.0
24/03:51am 23.5 29.1 23.5 100 0.0 CALM 0 0 0 0 1011.5 1011.4 4.0
24/03:41am 23.5 29.1 23.5 100 0.0 CALM 0 0 0 0 1011.5 1011.4 3.8
24/03:30am 23.4 28.9 23.4 100 0.0 CALM 0 0 0 0 1011.6 1011.5 3.8
24/03:00am 23.5 28.7 23.5 100 0.0 SSW 2 7 1 4 1011.7 1011.6 3.8
24/02:30am 23.8 29.4 23.6 99 0.1 CALM 0 0 0 0 1012.0 1011.9 3.6
24/02:18am 24.2 30.0 23.9 98 0.2 CALM 0 0 0 0 1012.1 1012.0 3.6
24/02:00am 24.8 29.3 23.9 95 0.6 SE 7 11 4 6 1012.3 1012.2 3.6
24/01:30am 25.1 29.7 24.1 94 0.7 SSE 7 11 4 6 1012.6 1012.5 3.6
24/01:00am 25.1 29.3 24.1 94 0.7 SE 9 13 5 7 1012.9 1012.8 3.6
24/12:30am 25.3 29.1 24.1 93 0.8 SE 11 17 6 9 1013.2 1013.1 3.6
24/12:00am 25.4 28.8 24.0 92 1.0 SE 13 19 7 10 1013.3 1013.2 3.6
 
Date/Time
EST
Temp
°C
App
Temp
°C
Dew
Point
°C
Rel
Hum
%
Delta-T
°C
Wind Press
QNH
hPa
Press
MSL
hPa
Rain since
9am
mm
Dir  Spd
km/h
Gust
km/h
Spd
kts
Gust
kts
23/11:32pm 25.9 28.6 24.1 90 1.2 SE 17 24 9 13 1013.5 1013.4 3.6
23/11:30pm 25.8 28.0 24.0 90 1.2 SE 19 24 10 13 1013.5 1013.4 3.6
23/11:19pm 25.8 29.4 24.4 92 1.0 SE 13 22 7 12 1013.6 1013.5 3.6
23/11:00pm 25.8 28.8 24.0 90 1.2 SE 15 20 8 11 1013.6 1013.5 3.6
23/10:58pm 25.9 29.0 24.1 90 1.2 SE 15 20 8 11 1013.7 1013.6 3.6
23/10:48pm 26.0 29.1 24.2 90 1.2 SE 15 20 8 11 1013.7 1013.6 3.6
23/10:30pm 25.9 29.3 24.1 90 1.2 SE 13 19 7 10 1013.7 1013.6 3.6
23/10:03pm 26.0 28.4 24.2 90 1.2 SE 19 24 10 13 1013.7 1013.6 3.6
23/10:00pm 26.0 28.9 24.4 91 1.1 SE 17 24 9 13 1013.7 1013.6 3.6
23/09:53pm 25.9 29.1 24.3 91 1.1 SE 15 20 8 11 1013.7 1013.6 3.6
23/09:30pm 26.0 28.6 24.0 89 1.4 SE 17 24 9 13 1013.6 1013.5 3.6
23/09:00pm 25.8 29.0 24.4 92 1.0 SE 15 20 8 11 1013.4 1013.3 3.6
23/08:59pm 25.9 29.2 24.5 92 1.0 SE 15 20 8 11 1013.4 1013.3 3.6
23/08:30pm 25.8 29.5 24.6 93 0.8 SE 13 17 7 9 1013.2 1013.1 3.6
23/08:00pm 25.7 29.8 24.5 93 0.8 SE 11 13 6 7 1012.8 1012.7 3.6
23/07:42pm 25.6 29.6 24.4 93 0.8 SE 11 13 6 7 1012.5 1012.4 3.6
23/07:30pm 25.7 29.3 24.3 92 1.0 SE 13 17 7 9 1012.3 1012.2 3.6
23/07:00pm 25.7 29.6 24.3 92 1.0 SE 11 15 6 8 1012.2 1012.1 3.6
23/06:30pm 26.0 28.7 24.2 90 1.2 SE 17 24 9 13 1011.9 1011.8 3.6
23/06:00pm 26.3 29.1 24.3 89 1.4 SE 17 20 9 11 1011.6 1011.5 3.6
23/05:30pm 26.4 29.1 24.2 88 1.5 SE 17 20 9 11 1011.3 1011.2 3.6
23/05:00pm 27.6 29.2 23.8 80 2.6 SSE 22 33 12 18 1011.3 1011.2 3.6
23/04:30pm 27.9 29.0 23.7 78 2.9 SE 24 35 13 19 1011.1 1011.0 3.6
23/04:00pm 28.1 29.2 23.7 77 3.0 SE 24 35 13 19 1010.9 1010.8 3.6
23/03:30pm 28.3 29.9 24.5 80 2.6 SE 24 33 13 18 1010.8 1010.7 3.6
23/03:00pm 28.7 29.4 24.3 77 3.1 SE 28 37 15 20 1010.9 1010.8 3.6
23/02:30pm 28.4 30.3 24.4 79 2.8 SE 22 32 12 17 1011.1 1011.0 3.6
23/02:00pm 28.0 29.8 24.8 83 2.2 SE 24 39 13 21 1011.5 1011.4 3.6
23/01:39pm 27.0 31.2 26.0 94 0.7 SE 15 20 8 11 1011.8 1011.7 3.6
23/01:30pm 26.1 28.9 24.9 93 0.8 ESE 19 32 10 17 1011.9 1011.8 3.6
23/01:24pm 26.1 28.7 24.9 93 0.8 ESE 20 32 11 17 1011.9 1011.8 3.4
23/01:21pm 26.4 28.9 24.8 91 1.1 SE 20 30 11 16 1011.9 1011.8 3.0
23/01:00pm 27.5 30.2 25.1 87 1.7 SSE 20 30 11 16 1012.1 1012.0 2.8
23/12:55pm 27.5 30.3 25.3 88 1.5 SSE 20 30 11 16 1012.2 1012.1 2.8
23/12:32pm 26.7 29.9 24.9 90 1.3 ESE 17 33 9 18 1012.4 1012.3 2.8
23/12:30pm 27.1 31.3 25.3 90 1.3 E 13 33 7 18 1012.4 1012.3 2.8
23/12:00pm 27.3 31.9 25.9 92 1.0 SE 13 20 7 11 1012.6 1012.5 2.2
23/11:30am 27.9 29.7 24.9 84 2.1 SE 24 35 13 19 1012.9 1012.8 1.4
23/11:10am 27.0 29.5 25.4 91 1.1 SE 22 32 12 17 1013.2 1013.1 1.4
23/11:03am 27.0 31.1 25.8 93 0.8 ESE 15 26 8 14 1013.2 1013.1 1.4
23/11:00am 26.8 31.1 26.1 96 0.5 E 15 20 8 11 1013.3 1013.2 1.4
23/10:52am 25.6 28.2 24.9 96 0.5 E 20 37 11 20 1013.4 1013.3 1.4
23/10:30am 27.0 28.9 25.0 89 1.4 SE 24 32 13 17 1013.5 1013.4 0.2
23/10:27am 27.4 29.3 25.0 87 1.7 SE 24 32 13 17 1013.5 1013.4 0.2
23/10:00am 27.6 28.7 24.4 83 2.2 SE 26 39 14 21 1013.3 1013.2 0.2
23/09:59am 27.7 28.8 24.3 82 2.4 SE 26 39 14 21 1013.3 1013.2 0.2
23/09:30am 26.5 30.9 25.6 95 0.6 SE 13 19 7 10 1013.5 1013.4 0.2
23/09:27am 26.4 30.7 25.5 95 0.6 SE 13 19 7 10 1013.4 1013.3 0.2
23/09:26am 26.4 30.8 25.7 96 0.5 SE 13 19 7 10 1013.4 1013.3 0.2
23/09:06am 25.6 29.3 25.1 97 0.3 ESE 15 19 8 10 1013.4 1013.3 0.2
23/09:00am 25.4 28.2 24.9 97 0.3 ESE 19 28 10 15 1013.4 1013.3 9.6
23/08:54am 25.4 27.7 24.5 95 0.6 SE 20 28 11 15 1013.4 1013.3 9.6
23/08:40am 26.3 30.3 25.6 96 0.5 SSE 15 20 8 11 1013.2 1013.1 9.6
23/08:30am 26.0 30.4 25.1 95 0.6 ESE 11 17 6 9 1013.1 1013.0 9.6
23/08:07am 25.0 27.9 24.5 97 0.3 ESE 17 26 9 14 1012.9 1012.8 9.6
23/08:00am 24.7 26.6 23.8 95 0.6 ESE 20 32 11 17 1012.8 1012.7 9.6
23/07:49am 25.1 29.5 25.1 100 0.0 SE 11 13 6 7 1012.8 1012.7 9.4
23/07:39am 25.1 29.5 25.1 100 0.0 SSE 11 17 6 9 1012.5 1012.4 9.4
23/07:30am 24.9 29.2 24.9 100 0.0 SSE 11 15 6 8 1012.5 1012.4 9.4
23/07:00am 24.7 28.1 24.7 100 0.0 SE 15 17 8 9 1012.2 1012.1 9.4
23/06:30am 24.5 26.9 24.3 99 0.1 SE 19 28 10 15 1012.0 1011.9 9.4
23/06:00am 24.5 28.2 24.5 100 0.0 SE 13 20 7 11 1011.7 1011.6 9.2
23/05:56am 24.6 28.0 24.6 100 0.0 SE 15 24 8 13 1011.7 1011.6 9.2
23/05:54am 24.6 27.6 24.6 100 0.0 SE 17 24 9 13 1011.7 1011.6 9.2
23/05:42am 24.6 27.4 24.3 98 0.2 SE 17 24 9 13 1011.6 1011.5 9.0
23/05:30am 25.0 28.2 24.3 96 0.5 SE 15 22 8 12 1011.5 1011.4 8.8
23/05:04am 24.9 27.9 24.7 99 0.1 SE 17 22 9 12 1011.2 1011.1 8.8
23/05:00am 24.9 28.8 24.9 100 0.0 SE 13 22 7 12 1011.1 1011.0 8.8
23/04:30am 24.5 29.3 24.5 100 0.0 SSE 7 9 4 5 1010.9 1010.8 8.8
23/04:00am 24.9 28.8 24.9 100 0.0 SE 13 22 7 12 1010.8 1010.7 8.6
23/03:47am 24.6 29.5 24.6 100 0.0 SSE 7 9 4 5 1010.8 1010.7 8.2
23/03:41am 24.5 28.9 24.5 100 0.0 SSE 9 13 5 7 1010.7 1010.6 8.2
23/03:31am 24.7 29.3 24.7 100 0.0 SE 9 13 5 7 1010.8 1010.7 8.2
23/03:30am 24.7 29.3 24.7 100 0.0 SE 9 13 5 7 1010.9 1010.8 8.2
23/03:11am 24.7 28.5 24.7 100 0.0 SE 13 17 7 9 1011.1 1011.0 8.2
23/03:09am 24.7 28.5 24.7 100 0.0 SE 13 19 7 10 1011.1 1011.0 8.2
23/03:00am 24.7 27.7 24.7 100 0.0 SE 17 24 9 13 1011.1 1011.0 8.2
23/02:54am 24.8 29.0 24.8 100 0.0 SE 11 20 6 11 1011.3 1011.2 8.0
23/02:45am 24.7 28.9 24.7 100 0.0 ESE 11 15 6 8 1011.2 1011.1 7.8
23/02:44am 24.6 28.7 24.6 100 0.0 ESE 11 15 6 8 1011.2 1011.1 7.8
23/02:40am 24.6 28.7 24.6 100 0.0 ESE 11 19 6 10 1011.2 1011.1 7.6
23/02:30am 24.5 27.4 24.5 100 0.0 ESE 17 28 9 15 1011.2 1011.1 7.6
23/02:02am 24.7 28.8 24.5 99 0.1 SE 11 17 6 9 1011.5 1011.4 4.8
23/02:00am 24.8 28.9 24.6 99 0.1 SE 11 17 6 9 1011.5 1011.4 3.2
23/01:50am 24.8 28.5 24.6 99 0.1 SE 13 19 7 10 1011.4 1011.3 2.8
23/01:47am 24.7 28.5 24.7 100 0.0 SE 13 19 7 10 1011.4 1011.3 2.8
23/01:40am 24.6 28.0 24.6 100 0.0 ESE 15 24 8 13 1011.5 1011.4 2.8
23/01:33am 24.5 27.3 24.3 99 0.1 ESE 17 26 9 14 1011.5 1011.4 2.8
23/01:30am 24.5 26.9 24.3 99 0.1 ESE 19 26 10 14 1011.5 1011.4 2.6
23/01:00am 24.7 27.6 24.5 99 0.1 ESE 17 28 9 15 1011.7 1011.6 2.4
23/12:47am 24.7 27.7 24.7 100 0.0 ESE 17 26 9 14 1011.8 1011.7 2.4
23/12:34am 24.5 26.9 24.2 98 0.2 ESE 19 28 10 15 1011.9 1011.8 2.4
23/12:30am 24.6 26.7 24.1 97 0.3 ESE 20 35 11 19 1011.9 1011.8 2.4
23/12:00am 24.6 29.0 24.4 99 0.1 S 9 13 5 7 1011.9 1011.8 2.0

Other formats

Comma delimited format used in spreadsheet applications
http://www.bom.gov.au/fwo/IDQ60801/IDQ60801.94186.axf

JavaScript Object Notation format (JSON) in row-major order
http://www.bom.gov.au/fwo/IDQ60801/IDQ60801.94186.json

Data quality

Most of these data are generated automatically and are frequently updated. Quality checks on data are not normally performed. It is possible for incorrect values to appear. Refer to information at About Latest Weather Observations and please check the disclaimer before using these data.